createdAt,value
2022-11-23T00:00:40.675Z,93757.78
2022-11-23T00:03:07.393Z,93731.34
2022-11-23T00:05:34.901Z,93743.66
2022-11-23T00:08:02.185Z,93790.09
2022-11-23T00:10:28.824Z,93780.88
2022-11-23T00:12:55.428Z,93782.44
2022-11-23T00:15:22.396Z,93776.06
2022-11-23T00:17:49.177Z,93766.44
2022-11-23T00:20:16.156Z,93761.44
2022-11-23T00:22:42.933Z,93754.06
2022-11-23T00:25:09.726Z,93745.25
2022-11-23T00:27:36.682Z,93759.91
2022-11-23T00:30:03.846Z,93741.03
2022-11-23T00:32:30.584Z,93749.06
2022-11-23T00:34:57.289Z,93746.59
2022-11-23T00:37:24.159Z,93746.28
2022-11-23T00:39:51.026Z,93761.44
2022-11-23T00:42:17.750Z,93756.13
2022-11-23T00:44:44.708Z,93746.69
2022-11-23T00:47:11.351Z,93759.59
2022-11-23T00:49:38.069Z,93755.47
2022-11-23T00:52:05.169Z,93746.69
2022-11-23T00:54:31.768Z,93735.47
2022-11-23T00:56:58.318Z,93748.94
2022-11-23T00:59:24.914Z,93745.84
2022-11-23T01:01:51.665Z,93764.91
2022-11-23T01:04:18.547Z,93753.41
2022-11-23T01:06:45.489Z,93762.38
2022-11-23T01:09:14.777Z,93756.28
2022-11-23T01:11:42.179Z,93735.19
2022-11-23T01:14:09.210Z,93740.25
2022-11-23T01:16:39.264Z,93769.44
2022-11-23T01:19:11.984Z,93773.56
2022-11-23T01:21:39.597Z,93776.69
2022-11-23T01:24:13.052Z,93745.78
2022-11-23T01:26:40.897Z,93706.97
2022-11-23T01:29:08.168Z,93755.16
2022-11-23T01:31:34.868Z,93764.59
2022-11-23T01:34:04.882Z,93744.63
2022-11-23T01:36:33.760Z,93756.50
2022-11-23T01:39:01.984Z,93742.91
2022-11-23T01:41:35.420Z,93747.97
2022-11-23T01:44:31.248Z,93741.88
2022-11-23T01:47:00.559Z,93762.41
2022-11-23T01:49:49.929Z,93772.72
2022-11-23T01:52:20.546Z,93702.81
2022-11-23T01:54:53.737Z,93734.31
2022-11-23T01:57:23.339Z,93762.41
2022-11-23T01:59:51.656Z,93737.53
2022-11-23T02:02:18.547Z,93751.22
2022-11-23T02:04:48.994Z,93739.47
2022-11-23T02:07:17.735Z,93729.84
2022-11-23T02:09:45.816Z,93725.53
2022-11-23T02:12:14.129Z,93701.22
2022-11-23T02:14:42.222Z,93730.09
2022-11-23T02:17:09.131Z,93741.63
2022-11-23T02:19:54.417Z,93737.19
2022-11-23T02:22:39.450Z,93733.56
2022-11-23T02:25:13.731Z,93709.75
2022-11-23T02:27:46.726Z,93738.97
2022-11-23T02:30:14.038Z,93732.38
2022-11-23T02:32:41.936Z,93740.78
2022-11-23T02:35:11.609Z,93740.72
2022-11-23T02:37:40.249Z,93729.56
2022-11-23T02:40:27.307Z,93714.00
2022-11-23T02:42:54.037Z,93701.94
2022-11-23T02:45:23.904Z,93705.91
2022-11-23T02:47:50.562Z,93708.06
2022-11-23T02:50:17.279Z,93710.22
2022-11-23T02:52:44.012Z,93650.28
2022-11-23T02:55:11.052Z,93671.69
2022-11-23T02:57:37.682Z,93666.03
2022-11-23T03:00:05.361Z,93642.06
2022-11-23T03:02:31.980Z,93679.03
2022-11-23T03:04:58.609Z,93664.84
2022-11-23T03:07:25.256Z,93667.88
2022-11-23T03:09:52.365Z,93648.50
2022-11-23T03:12:19.078Z,93636.75
2022-11-23T03:14:45.759Z,93662.66
2022-11-23T03:17:12.507Z,93678.06
2022-11-23T03:19:39.117Z,93640.94
2022-11-23T03:22:06.036Z,93658.22
2022-11-23T03:24:32.748Z,93653.09
2022-11-23T03:26:59.639Z,93648.91
2022-11-23T03:29:26.624Z,93667.03
2022-11-23T03:31:54.122Z,93651.38
2022-11-23T03:34:20.885Z,93658.59
2022-11-23T03:36:47.608Z,93661.66
2022-11-23T03:39:14.322Z,93634.78
2022-11-23T03:41:41.009Z,93638.91
2022-11-23T03:44:07.991Z,93624.50
2022-11-23T03:46:34.758Z,93631.50
2022-11-23T03:49:01.469Z,93637.22
2022-11-23T03:51:28.195Z,93634.91
2022-11-23T03:53:55.025Z,93657.31
2022-11-23T03:56:21.944Z,93634.72
2022-11-23T03:58:48.778Z,93629.59
2022-11-23T04:01:15.941Z,93648.81
2022-11-23T04:03:42.614Z,93641.63
2022-11-23T04:06:09.703Z,93632.28
2022-11-23T04:08:36.340Z,93660.94
2022-11-23T04:11:02.965Z,93647.69
2022-11-23T04:13:29.577Z,93665.16
2022-11-23T04:15:56.296Z,93666.56
2022-11-23T04:18:23.043Z,93661.50
2022-11-23T04:20:50.037Z,93671.31
2022-11-23T04:23:16.766Z,93640.75
2022-11-23T04:25:44.070Z,93664.22
2022-11-23T04:28:10.824Z,93667.59
2022-11-23T04:30:37.801Z,93665.84
2022-11-23T04:33:04.538Z,93626.00
2022-11-23T04:35:31.340Z,93673.34
2022-11-23T04:37:58.059Z,93668.69
2022-11-23T04:40:25.229Z,93681.19
2022-11-23T04:42:51.859Z,93680.69
2022-11-23T04:45:18.473Z,93680.22
2022-11-23T04:47:45.130Z,93651.94
2022-11-23T04:50:12.066Z,93686.25
2022-11-23T04:52:38.962Z,93649.44
2022-11-23T04:55:06.304Z,93697.25
2022-11-23T04:57:33.015Z,93674.28
2022-11-23T05:00:00.170Z,93688.31
2022-11-23T05:02:26.734Z,93693.38
2022-11-23T05:04:53.755Z,93691.28
2022-11-23T05:07:20.576Z,93702.88
2022-11-23T05:09:47.210Z,93684.16
2022-11-23T05:12:13.882Z,93720.25
2022-11-23T05:14:40.488Z,93703.16
2022-11-23T05:17:07.169Z,93698.00
2022-11-23T05:19:34.266Z,93690.06
2022-11-23T05:22:01.580Z,93679.88
2022-11-23T05:24:28.435Z,93674.41
2022-11-23T05:26:56.442Z,93689.25
2022-11-23T05:29:23.272Z,93691.91
2022-11-23T05:31:49.943Z,93689.47
2022-11-23T05:34:16.669Z,93658.41
2022-11-23T05:36:43.280Z,93679.06
2022-11-23T05:39:10.225Z,93676.41
2022-11-23T05:41:36.830Z,93672.16
2022-11-23T05:44:03.463Z,93649.03
2022-11-23T05:46:30.336Z,93670.00
2022-11-23T05:48:57.067Z,93668.66
2022-11-23T05:51:23.820Z,93660.25
2022-11-23T05:53:50.974Z,93659.72
2022-11-23T05:56:17.826Z,93658.97
2022-11-23T05:58:44.627Z,93668.41
2022-11-23T06:01:11.459Z,93650.41
2022-11-23T06:03:38.318Z,93685.34
2022-11-23T06:06:06.777Z,93665.19
2022-11-23T06:08:33.682Z,93680.44
2022-11-23T06:11:01.930Z,93672.75
2022-11-23T06:13:28.560Z,93685.19
2022-11-23T06:15:55.340Z,93690.31
2022-11-23T06:18:22.073Z,93687.72
2022-11-23T06:20:48.799Z,93674.19
2022-11-23T06:23:15.546Z,93692.13
2022-11-23T06:25:42.232Z,93689.66
2022-11-23T06:28:09.097Z,93706.59
2022-11-23T06:30:35.912Z,93703.19
2022-11-23T06:33:05.011Z,93714.25
2022-11-23T06:35:31.730Z,93711.25
2022-11-23T06:37:58.437Z,93687.28
2022-11-23T06:40:25.615Z,93705.75
2022-11-23T06:42:57.648Z,93696.16
2022-11-23T06:45:24.980Z,93683.81
2022-11-23T06:47:54.786Z,93697.09
2022-11-23T06:50:21.648Z,93689.63
2022-11-23T06:52:49.330Z,93691.97
2022-11-23T06:55:16.280Z,93695.50
2022-11-23T06:57:43.200Z,93702.72
2022-11-23T07:00:11.379Z,93717.19
2022-11-23T07:02:38.019Z,93717.94
2022-11-23T07:05:04.906Z,93692.75
2022-11-23T07:07:32.345Z,93686.28
2022-11-23T07:10:01.653Z,93692.16
2022-11-23T07:12:32.313Z,93682.41
2022-11-23T07:14:59.146Z,93704.22
2022-11-23T07:17:25.796Z,93707.84
2022-11-23T07:19:52.430Z,93709.84
2022-11-23T07:22:19.135Z,93698.69
2022-11-23T07:24:47.002Z,93697.44
2022-11-23T07:27:13.876Z,93697.75
2022-11-23T07:29:40.730Z,93690.09
2022-11-23T07:32:08.569Z,93683.31
2022-11-23T07:34:35.189Z,93711.59
2022-11-23T07:37:02.407Z,93701.22
2022-11-23T07:39:49.210Z,93698.59
2022-11-23T07:42:32.367Z,93687.53
2022-11-23T07:45:01.898Z,93691.09
2022-11-23T07:47:28.841Z,93676.28
2022-11-23T07:49:55.632Z,93670.59
2022-11-23T07:52:22.540Z,93688.06
2022-11-23T07:54:49.491Z,93690.81
2022-11-23T07:57:18.298Z,93693.66
2022-11-23T07:59:44.902Z,93698.91
2022-11-23T08:02:14.913Z,93692.09
2022-11-23T08:04:41.562Z,93701.63
2022-11-23T08:07:08.312Z,93708.44
2022-11-23T08:09:35.083Z,93687.41
2022-11-23T08:12:01.737Z,93703.72
2022-11-23T08:14:28.395Z,93683.91
2022-11-23T08:16:55.409Z,93683.00
2022-11-23T08:19:22.124Z,93686.72
2022-11-23T08:21:48.740Z,93682.75
2022-11-23T08:24:15.539Z,93688.00
2022-11-23T08:26:42.413Z,93670.63
2022-11-23T08:29:09.334Z,93671.59
2022-11-23T08:31:36.753Z,93669.66
2022-11-23T08:34:03.915Z,93663.94
2022-11-23T08:36:30.778Z,93670.13
2022-11-23T08:38:57.365Z,93656.72
2022-11-23T08:41:24.035Z,93680.03
2022-11-23T08:43:51.495Z,93680.81
2022-11-23T08:46:18.452Z,93678.00
2022-11-23T08:48:45.336Z,93678.50
2022-11-23T08:51:11.986Z,93674.53
2022-11-23T08:53:39.983Z,93661.84
2022-11-23T08:56:08.465Z,93661.09
2022-11-23T08:58:36.813Z,93670.06
2022-11-23T09:01:08.789Z,93677.06
2022-11-23T09:03:35.555Z,93666.91
2022-11-23T09:06:02.488Z,93659.47
2022-11-23T09:08:29.260Z,93667.84
2022-11-23T09:11:03.251Z,93659.88
2022-11-23T09:13:30.479Z,93653.19
2022-11-23T09:16:02.365Z,93660.63
2022-11-23T09:18:33.416Z,93643.31
2022-11-23T09:21:03.892Z,93644.06
2022-11-23T09:23:31.118Z,93655.22
2022-11-23T09:26:02.445Z,93665.09
2022-11-23T09:28:29.761Z,93658.41
2022-11-23T09:30:57.504Z,93647.25
2022-11-23T09:33:25.116Z,93662.13
2022-11-23T09:36:00.177Z,93647.75
2022-11-23T09:38:51.636Z,93643.94
2022-11-23T09:41:41.610Z,93643.22
2022-11-23T09:44:36.040Z,93630.19
2022-11-23T09:47:27.834Z,93641.22
2022-11-23T09:50:03.330Z,93634.91
2022-11-23T09:52:31.463Z,93643.28
2022-11-23T09:55:03.533Z,93640.38
2022-11-23T09:57:34.403Z,93656.91
2022-11-23T10:00:22.300Z,93649.16
2022-11-23T10:02:49.474Z,93650.56
2022-11-23T10:05:20.095Z,93639.94
2022-11-23T10:07:55.045Z,93636.34
2022-11-23T10:10:38.550Z,93632.34
2022-11-23T10:13:23.905Z,93626.13
2022-11-23T10:16:03.152Z,93632.78
2022-11-23T10:18:47.131Z,93628.63
2022-11-23T10:21:19.611Z,93622.75
2022-11-23T10:24:01.431Z,93619.09
2022-11-23T10:26:49.949Z,93640.25
2022-11-23T10:29:27.272Z,93636.91
2022-11-23T10:31:57.221Z,93637.09
2022-11-23T10:34:51.371Z,93636.28
2022-11-23T10:37:18.745Z,93635.88
2022-11-23T10:39:45.407Z,93622.88
2022-11-23T10:42:23.660Z,93630.22
2022-11-23T10:44:51.813Z,93636.16
2022-11-23T10:47:48.316Z,93625.72
2022-11-23T10:50:25.862Z,93619.25
2022-11-23T10:52:59.629Z,93620.78
2022-11-23T10:55:31.576Z,93614.41
2022-11-23T10:57:58.980Z,93608.22
2022-11-23T11:00:30.881Z,93599.41
2022-11-23T11:02:59.586Z,93600.38
2022-11-23T11:05:53.430Z,93609.25
2022-11-23T11:08:18.893Z,93604.91
2022-11-23T11:10:57.070Z,93598.78
2022-11-23T11:13:32.681Z,93595.75
2022-11-23T11:16:05.390Z,93585.25
2022-11-23T11:18:34.972Z,93587.91
2022-11-23T11:21:19.529Z,93590.00
2022-11-23T11:23:59.227Z,93582.78
2022-11-23T11:26:28.871Z,93590.00
2022-11-23T11:28:57.832Z,93595.56
2022-11-23T11:31:55.430Z,93579.75
2022-11-23T11:34:46.358Z,93583.38
2022-11-23T11:37:39.637Z,93572.91
2022-11-23T11:40:37.115Z,93585.47
2022-11-23T11:43:19.215Z,93583.91
2022-11-23T11:46:13.581Z,93577.50
2022-11-23T11:48:46.433Z,93584.38
2022-11-23T11:51:14.825Z,93582.69
2022-11-23T11:54:15.775Z,93587.88
2022-11-23T11:56:46.415Z,93582.84
2022-11-23T11:59:29.997Z,93564.38
2022-11-23T12:02:25.374Z,93593.41
2022-11-23T12:05:05.720Z,93581.13
2022-11-23T12:07:41.536Z,93580.53
2022-11-23T12:10:36.780Z,93587.13
2022-11-23T12:13:03.826Z,93579.00
2022-11-23T12:15:55.676Z,93548.09
2022-11-23T12:18:38.181Z,93563.69
2022-11-23T12:21:14.744Z,93567.41
2022-11-23T12:23:59.718Z,93585.44
2022-11-23T12:27:12.224Z,93576.81
2022-11-23T12:30:15.821Z,93586.84
2022-11-23T12:33:01.316Z,93579.91
2022-11-23T12:35:28.044Z,93585.56
2022-11-23T12:38:17.024Z,93583.34
2022-11-23T12:41:00.275Z,93584.59
2022-11-23T12:43:36.697Z,93583.53
2022-11-23T12:46:35.846Z,93590.31
2022-11-23T12:49:38.801Z,93572.31
2022-11-23T12:52:24.270Z,93598.59
2022-11-23T12:55:19.238Z,93589.63
2022-11-23T12:58:10.451Z,93593.56
2022-11-23T13:00:59.718Z,93586.94
2022-11-23T13:03:47.725Z,93594.50
2022-11-23T13:06:29.437Z,93600.13
2022-11-23T13:09:28.379Z,93595.00
2022-11-23T13:12:33.977Z,93609.63
2022-11-23T13:15:07.691Z,93595.25
2022-11-23T13:17:37.241Z,93597.31
2022-11-23T13:20:30.665Z,93602.94
2022-11-23T13:22:58.599Z,93605.75
2022-11-23T13:25:30.015Z,93608.72
2022-11-23T13:28:05.602Z,93602.44
2022-11-23T13:31:07.262Z,93602.09
2022-11-23T13:33:31.729Z,93612.88
2022-11-23T13:36:09.553Z,93608.22
2022-11-23T13:38:40.457Z,93600.75
2022-11-23T13:41:39.633Z,93614.34
2022-11-23T13:44:28.545Z,93612.97
2022-11-23T13:47:18.758Z,93625.31
2022-11-23T13:49:51.507Z,93630.88
2022-11-23T13:52:21.216Z,93633.09
2022-11-23T13:55:03.822Z,93645.16
2022-11-23T13:57:34.118Z,93643.19
2022-11-23T14:00:38.175Z,93638.38
2022-11-23T14:03:52.235Z,93639.91
2022-11-23T14:06:36.608Z,93638.63
2022-11-23T14:09:13.748Z,93646.34
2022-11-23T14:12:09.228Z,93641.91
2022-11-23T14:14:48.342Z,93657.53
2022-11-23T14:17:39.982Z,93663.09
2022-11-23T14:20:06.747Z,93666.13
2022-11-23T14:23:07.585Z,93668.84
2022-11-23T14:26:03.658Z,93656.94
2022-11-23T14:28:48.510Z,93661.66
2022-11-23T14:31:27.477Z,93665.38
2022-11-23T14:34:32.476Z,93661.22
2022-11-23T14:37:20.830Z,93639.97
2022-11-23T14:40:12.482Z,93664.06
2022-11-23T14:42:45.893Z,93659.84
2022-11-23T14:45:15.055Z,93660.44
2022-11-23T14:47:41.809Z,93668.34
2022-11-23T14:50:29.522Z,93670.63
2022-11-23T14:52:59.057Z,93663.38
2022-11-23T14:55:28.744Z,93675.53
2022-11-23T14:58:02.327Z,93673.06
2022-11-23T15:00:35.741Z,93686.47
2022-11-23T15:06:17.335Z,93685.25
2022-11-23T15:08:56.333Z,93680.03
2022-11-23T15:11:27.642Z,93685.03
2022-11-23T15:14:04.655Z,93678.81
2022-11-23T15:16:39.969Z,93665.69
2022-11-23T15:19:39.059Z,93680.38
2022-11-23T15:22:05.813Z,93670.00
2022-11-23T15:24:32.960Z,93676.47
2022-11-23T15:27:09.519Z,93683.19
2022-11-23T15:29:40.045Z,93676.00
2022-11-23T15:32:34.221Z,93671.06
2022-11-23T15:35:07.043Z,93668.78
2022-11-23T15:37:41.126Z,93659.63
2022-11-23T15:40:13.850Z,93664.81
2022-11-23T15:42:41.089Z,93677.25
2022-11-23T15:45:39.257Z,93667.09
2022-11-23T15:48:11.457Z,93652.69
2022-11-23T15:50:59.142Z,93663.34
2022-11-23T15:53:29.368Z,93661.13
2022-11-23T15:56:00.980Z,93654.63
2022-11-23T15:58:28.665Z,93662.84
2022-11-23T16:01:13.124Z,93673.00
2022-11-23T16:03:39.882Z,93666.81
2022-11-23T16:06:12.560Z,93684.69
2022-11-23T16:08:41.037Z,93686.44
2022-11-23T16:11:29.900Z,93683.97
2022-11-23T16:14:11.604Z,93689.91
2022-11-23T16:16:44.062Z,93693.38
2022-11-23T16:19:25.560Z,93706.06
2022-11-23T16:22:01.771Z,93704.31
2022-11-23T16:24:30.572Z,93713.50
2022-11-23T16:26:57.689Z,93715.50
2022-11-23T16:29:27.458Z,93728.88
2022-11-23T16:31:57.463Z,93729.88
2022-11-23T16:34:24.777Z,93739.56
2022-11-23T16:36:52.017Z,93743.03
2022-11-23T16:39:18.744Z,93747.53
2022-11-23T16:41:45.709Z,93735.59
2022-11-23T16:44:12.351Z,93738.06
2022-11-23T16:46:43.514Z,93734.34
2022-11-23T16:49:19.508Z,93748.53
2022-11-23T16:51:56.287Z,93744.56
2022-11-23T16:54:25.413Z,93748.00
2022-11-23T16:56:52.982Z,93747.78
2022-11-23T16:59:20.156Z,93751.75
2022-11-23T17:01:53.871Z,93757.44
2022-11-23T17:04:22.625Z,93758.94
2022-11-23T17:06:49.776Z,93745.81
2022-11-23T17:09:16.339Z,93761.94
2022-11-23T17:11:46.325Z,93760.69
2022-11-23T17:14:18.566Z,93762.66
2022-11-23T17:16:46.339Z,93768.13
2022-11-23T17:19:18.539Z,93768.84
2022-11-23T17:21:45.190Z,93762.91
2022-11-23T17:24:12.996Z,93776.28
2022-11-23T17:26:46.771Z,93778.53
2022-11-23T17:29:19.053Z,93760.16
2022-11-23T17:31:46.281Z,93780.75
2022-11-23T17:34:14.312Z,93778.78
2022-11-23T17:36:43.357Z,93788.69
2022-11-23T17:39:24.683Z,93799.84
2022-11-23T17:41:52.707Z,93783.72
2022-11-23T17:44:19.360Z,93804.78
2022-11-23T17:46:47.517Z,93803.03
2022-11-23T17:49:17.984Z,93791.38
2022-11-23T17:51:44.951Z,93805.00
2022-11-23T17:54:12.910Z,93788.59
2022-11-23T17:56:39.920Z,93782.09
2022-11-23T17:59:09.718Z,93796.66
2022-11-23T18:01:36.838Z,93811.53
2022-11-23T18:04:04.907Z,93790.22
2022-11-23T18:06:31.964Z,93802.84
2022-11-23T18:08:58.615Z,93806.63
2022-11-23T18:11:25.631Z,93799.41
2022-11-23T18:13:52.634Z,93791.72
2022-11-23T18:16:21.214Z,93801.19
2022-11-23T18:18:49.347Z,93796.50
2022-11-23T18:21:16.607Z,93794.97
2022-11-23T18:23:44.233Z,93812.84
2022-11-23T18:26:19.212Z,93822.75
2022-11-23T18:28:46.701Z,93810.03
2022-11-23T18:31:16.425Z,93820.94
2022-11-23T18:33:43.919Z,93815.44
2022-11-23T18:36:11.490Z,93836.88
2022-11-23T18:38:39.467Z,93820.41
2022-11-23T18:41:06.982Z,93830.72
2022-11-23T18:43:33.874Z,93830.59
2022-11-23T18:46:00.769Z,93830.09
2022-11-23T18:48:27.938Z,93821.06
2022-11-23T18:50:55.014Z,93816.09
2022-11-23T18:53:21.681Z,93822.03
2022-11-23T18:55:48.395Z,93798.31
2022-11-23T18:58:16.350Z,93830.47
2022-11-23T19:00:43.362Z,93828.72
2022-11-23T19:03:10.289Z,93822.03
2022-11-23T19:05:37.312Z,93827.81
2022-11-23T19:08:07.160Z,93839.34
2022-11-23T19:10:37.184Z,93824.31
2022-11-23T19:13:06.132Z,93833.09
2022-11-23T19:15:33.538Z,93831.91
2022-11-23T19:18:00.817Z,93826.56
2022-11-23T19:20:29.304Z,93826.09
2022-11-23T19:22:56.455Z,93830.84
2022-11-23T19:25:23.462Z,93831.09
2022-11-23T19:27:51.593Z,93834.56
2022-11-23T19:30:18.570Z,93842.28
2022-11-23T19:33:11.750Z,93826.69
2022-11-23T19:35:38.681Z,93807.66
2022-11-23T19:38:05.696Z,93840.91
2022-11-23T19:40:32.708Z,93817.25
2022-11-23T19:42:59.493Z,93822.50
2022-11-23T19:45:26.299Z,93837.53
2022-11-23T19:47:53.183Z,93850.09
2022-11-23T19:50:20.043Z,93840.31
2022-11-23T19:53:11.282Z,93849.25
2022-11-23T19:55:33.800Z,93845.53
2022-11-23T19:58:00.615Z,93843.81
2022-11-23T20:00:27.668Z,93850.22
2022-11-23T20:02:54.427Z,93861.28
2022-11-23T20:05:22.004Z,93839.72
2022-11-23T20:07:49.091Z,93865.69
2022-11-23T20:10:17.521Z,93866.81
2022-11-23T20:12:44.739Z,93859.81
2022-11-23T20:15:11.497Z,93878.97
2022-11-23T20:17:39.725Z,93869.72
2022-11-23T20:20:07.242Z,93873.06
2022-11-23T20:22:33.951Z,93870.97
2022-11-23T20:25:01.026Z,93871.88
2022-11-23T20:27:28.108Z,93878.88
2022-11-23T20:29:54.954Z,93872.44
2022-11-23T20:32:21.859Z,93890.00
2022-11-23T20:34:48.894Z,93880.66
2022-11-23T20:37:15.497Z,93866.41
2022-11-23T20:39:42.417Z,93870.47
2022-11-23T20:42:09.269Z,93866.31
2022-11-23T20:44:37.443Z,93880.25
2022-11-23T20:47:04.584Z,93876.72
2022-11-23T20:49:33.088Z,93875.63
2022-11-23T20:52:02.020Z,93877.94
2022-11-23T20:54:29.219Z,93874.53
2022-11-23T20:56:58.206Z,93880.50
2022-11-23T20:59:25.081Z,93864.53
2022-11-23T21:01:52.359Z,93887.88
2022-11-23T21:04:19.093Z,93881.06
2022-11-23T21:06:45.685Z,93865.59
2022-11-23T21:09:12.541Z,93879.91
2022-11-23T21:11:57.669Z,93868.22
2022-11-23T21:14:27.429Z,93861.59
2022-11-23T21:16:57.187Z,93880.72
2022-11-23T21:19:39.724Z,93880.06
2022-11-23T21:22:11.955Z,93873.88
2022-11-23T21:24:38.614Z,93882.44
2022-11-23T21:27:06.859Z,93871.06
2022-11-23T21:29:34.115Z,93877.81
2022-11-23T21:32:01.574Z,93887.03
2022-11-23T21:34:29.544Z,93869.84
2022-11-23T21:36:57.303Z,93867.66
2022-11-23T21:39:24.501Z,93872.13
2022-11-23T21:41:53.534Z,93870.88
2022-11-23T21:44:22.108Z,93876.41
2022-11-23T21:46:49.098Z,93871.50
2022-11-23T21:49:15.726Z,93883.88
2022-11-23T21:51:43.739Z,93873.59
2022-11-23T21:54:14.180Z,93883.41
2022-11-23T21:56:42.809Z,93899.25
2022-11-23T21:59:09.886Z,93895.59
2022-11-23T22:01:37.726Z,93900.81
2022-11-23T22:04:08.767Z,93890.88
2022-11-23T22:06:36.648Z,93890.19
2022-11-23T22:09:05.106Z,93878.84
2022-11-23T22:11:33.674Z,93882.91
2022-11-23T22:14:06.352Z,93900.94
2022-11-23T22:16:38.141Z,93902.25
2022-11-23T22:19:06.062Z,93899.91
2022-11-23T22:21:36.179Z,93888.78
2022-11-23T22:24:04.288Z,93909.59
2022-11-23T22:26:31.021Z,93911.09
2022-11-23T22:29:02.428Z,93917.72
2022-11-23T22:31:31.219Z,93918.00
2022-11-23T22:33:57.821Z,93908.72
2022-11-23T22:36:24.893Z,93933.00
2022-11-23T22:39:01.396Z,93888.00
2022-11-23T22:41:29.921Z,93915.13
2022-11-23T22:43:57.361Z,93916.16
2022-11-23T22:46:25.184Z,93917.72
2022-11-23T22:48:53.518Z,93932.69
2022-11-23T22:51:23.773Z,93923.50
2022-11-23T22:53:58.507Z,93892.38
2022-11-23T22:56:26.315Z,93918.56
2022-11-23T22:58:53.590Z,93911.34
2022-11-23T23:01:22.900Z,93908.41
2022-11-23T23:03:56.944Z,93871.13
2022-11-23T23:06:25.748Z,93907.16
2022-11-23T23:08:57.894Z,93919.88
2022-11-23T23:11:26.109Z,93926.75
2022-11-23T23:13:54.537Z,93929.84
2022-11-23T23:16:21.657Z,93923.84
2022-11-23T23:18:48.581Z,93931.38
2022-11-23T23:21:17.765Z,93917.59
2022-11-23T23:23:46.653Z,93929.38
2022-11-23T23:26:16.073Z,93937.81
2022-11-23T23:28:43.358Z,93929.09
2022-11-23T23:31:12.782Z,93920.19
2022-11-23T23:33:40.031Z,93927.84
2022-11-23T23:36:12.320Z,93938.38
2022-11-23T23:38:39.546Z,93931.69
2022-11-23T23:41:07.844Z,93931.47
2022-11-23T23:43:35.082Z,93935.84
2022-11-23T23:46:04.042Z,93932.13
2022-11-23T23:48:35.519Z,93935.56
2022-11-23T23:51:10.682Z,93931.41
2022-11-23T23:53:38.116Z,93932.44
2022-11-23T23:56:17.294Z,93943.97
2022-11-23T23:58:44.660Z,93930.66
